sensor_id;sensor_type;location;lat;lon;timestamp;temperature;humidity
4374;DHT22;2201;51.100;6.814;2024-02-23T00:01:21;7.30;98.20
4374;DHT22;2201;51.100;6.814;2024-02-23T00:03:54;7.30;98.20
4374;DHT22;2201;51.100;6.814;2024-02-23T00:06:25;7.20;98.20
4374;DHT22;2201;51.100;6.814;2024-02-23T00:08:56;7.20;98.20
4374;DHT22;2201;51.100;6.814;2024-02-23T00:11:32;7.10;98.20
4374;DHT22;2201;51.100;6.814;2024-02-23T00:30:09;6.60;98.20
4374;DHT22;2201;51.100;6.814;2024-02-23T00:35:29;6.50;98.20
4374;DHT22;2201;51.100;6.814;2024-02-23T04:24:01;5.60;98.20
4374;DHT22;2201;51.100;6.814;2024-02-23T04:26:27;5.60;98.20
4374;DHT22;2201;51.100;6.814;2024-02-23T04:28:54;5.60;98.20
4374;DHT22;2201;51.100;6.814;2024-02-23T04:31:21;5.60;98.20
4374;DHT22;2201;51.100;6.814;2024-02-23T04:33:48;5.60;98.20
4374;DHT22;2201;51.100;6.814;2024-02-23T04:36:14;5.70;98.20
4374;DHT22;2201;51.100;6.814;2024-02-23T04:38:45;5.80;98.20
4374;DHT22;2201;51.100;6.814;2024-02-23T04:41:13;5.90;98.20
4374;DHT22;2201;51.100;6.814;2024-02-23T04:43:40;5.90;98.20
4374;DHT22;2201;51.100;6.814;2024-02-23T04:46:07;5.90;98.20
4374;DHT22;2201;51.100;6.814;2024-02-23T04:48:33;6.00;98.20
4374;DHT22;2201;51.100;6.814;2024-02-23T04:51:02;6.00;98.20
4374;DHT22;2201;51.100;6.814;2024-02-23T04:53:28;6.10;98.20
4374;DHT22;2201;51.100;6.814;2024-02-23T04:55:55;6.10;98.20
4374;DHT22;2201;51.100;6.814;2024-02-23T04:58:23;6.10;98.20
4374;DHT22;2201;51.100;6.814;2024-02-23T05:00:50;6.10;98.20
4374;DHT22;2201;51.100;6.814;2024-02-23T05:03:17;6.10;98.20
4374;DHT22;2201;51.100;6.814;2024-02-23T05:05:44;6.10;98.20
4374;DHT22;2201;51.100;6.814;2024-02-23T05:08:11;6.00;98.20
4374;DHT22;2201;51.100;6.814;2024-02-23T05:10:37;6.00;98.20
4374;DHT22;2201;51.100;6.814;2024-02-23T05:13:04;6.00;98.20
4374;DHT22;2201;51.100;6.814;2024-02-23T05:15:33;6.00;98.20
4374;DHT22;2201;51.100;6.814;2024-02-23T05:18:00;6.00;98.20
4374;DHT22;2201;51.100;6.814;2024-02-23T05:20:27;6.00;98.20
4374;DHT22;2201;51.100;6.814;2024-02-23T05:22:54;6.00;98.20
4374;DHT22;2201;51.100;6.814;2024-02-23T05:25:21;6.10;98.20
4374;DHT22;2201;51.100;6.814;2024-02-23T05:27:48;6.10;98.20
4374;DHT22;2201;51.100;6.814;2024-02-23T05:30:15;6.10;98.20
4374;DHT22;2201;51.100;6.814;2024-02-23T05:32:43;6.10;98.20
4374;DHT22;2201;51.100;6.814;2024-02-23T05:35:11;6.10;98.20
4374;DHT22;2201;51.100;6.814;2024-02-23T05:37:38;6.10;98.20
4374;DHT22;2201;51.100;6.814;2024-02-23T05:40:07;6.10;98.20
4374;DHT22;2201;51.100;6.814;2024-02-23T05:42:35;6.10;98.20
4374;DHT22;2201;51.100;6.814;2024-02-23T05:45:03;6.10;98.20
4374;DHT22;2201;51.100;6.814;2024-02-23T05:47:34;6.10;98.20
4374;DHT22;2201;51.100;6.814;2024-02-23T05:50:02;6.10;98.20
4374;DHT22;2201;51.100;6.814;2024-02-23T05:52:30;6.10;98.20
4374;DHT22;2201;51.100;6.814;2024-02-23T05:54:57;6.10;98.20
4374;DHT22;2201;51.100;6.814;2024-02-23T05:57:25;6.10;98.20
4374;DHT22;2201;51.100;6.814;2024-02-23T05:59:52;6.10;98.20
4374;DHT22;2201;51.100;6.814;2024-02-23T06:02:20;6.10;98.20
4374;DHT22;2201;51.100;6.814;2024-02-23T06:04:50;6.10;98.20
4374;DHT22;2201;51.100;6.814;2024-02-23T06:07:18;6.10;98.20
4374;DHT22;2201;51.100;6.814;2024-02-23T06:09:47;6.10;98.20
4374;DHT22;2201;51.100;6.814;2024-02-23T06:12:14;6.10;98.20
4374;DHT22;2201;51.100;6.814;2024-02-23T06:14:50;6.10;98.20
4374;DHT22;2201;51.100;6.814;2024-02-23T06:17:17;6.10;98.20
4374;DHT22;2201;51.100;6.814;2024-02-23T06:19:44;6.20;98.20
4374;DHT22;2201;51.100;6.814;2024-02-23T06:22:11;6.10;98.20
4374;DHT22;2201;51.100;6.814;2024-02-23T06:24:40;6.10;98.20
4374;DHT22;2201;51.100;6.814;2024-02-23T06:27:07;6.20;98.20
4374;DHT22;2201;51.100;6.814;2024-02-23T06:29:35;6.20;98.20
4374;DHT22;2201;51.100;6.814;2024-02-23T06:32:03;6.20;98.20
4374;DHT22;2201;51.100;6.814;2024-02-23T06:34:30;6.20;98.20
4374;DHT22;2201;51.100;6.814;2024-02-23T06:36:57;6.30;98.20
4374;DHT22;2201;51.100;6.814;2024-02-23T06:39:24;6.30;98.20
4374;DHT22;2201;51.100;6.814;2024-02-23T06:41:53;6.30;98.20
4374;DHT22;2201;51.100;6.814;2024-02-23T06:44:19;6.30;98.20
4374;DHT22;2201;51.100;6.814;2024-02-23T06:46:46;6.30;98.20
4374;DHT22;2201;51.100;6.814;2024-02-23T06:49:13;6.30;98.20
4374;DHT22;2201;51.100;6.814;2024-02-23T06:51:40;6.30;98.20
4374;DHT22;2201;51.100;6.814;2024-02-23T06:54:07;6.20;98.20
4374;DHT22;2201;51.100;6.814;2024-02-23T06:56:34;6.20;98.20
4374;DHT22;2201;51.100;6.814;2024-02-23T06:59:03;6.10;98.20
4374;DHT22;2201;51.100;6.814;2024-02-23T07:01:30;6.10;98.20
4374;DHT22;2201;51.100;6.814;2024-02-23T07:03:59;6.00;98.20
4374;DHT22;2201;51.100;6.814;2024-02-23T07:06:26;6.00;98.20
4374;DHT22;2201;51.100;6.814;2024-02-23T07:08:54;6.10;98.20
4374;DHT22;2201;51.100;6.814;2024-02-23T07:11:21;6.10;98.20
4374;DHT22;2201;51.100;6.814;2024-02-23T07:13:48;6.10;98.20
4374;DHT22;2201;51.100;6.814;2024-02-23T07:16:16;6.10;98.20
4374;DHT22;2201;51.100;6.814;2024-02-23T07:18:42;6.10;98.20
4374;DHT22;2201;51.100;6.814;2024-02-23T07:21:10;6.10;98.20
4374;DHT22;2201;51.100;6.814;2024-02-23T07:23:37;6.10;98.20
4374;DHT22;2201;51.100;6.814;2024-02-23T07:26:04;6.20;98.20
4374;DHT22;2201;51.100;6.814;2024-02-23T07:28:31;6.30;98.20
4374;DHT22;2201;51.100;6.814;2024-02-23T07:30:58;6.30;98.20
4374;DHT22;2201;51.100;6.814;2024-02-23T07:33:26;6.30;98.20
4374;DHT22;2201;51.100;6.814;2024-02-23T07:35:53;6.40;98.20
4374;DHT22;2201;51.100;6.814;2024-02-23T07:38:20;6.50;98.20
4374;DHT22;2201;51.100;6.814;2024-02-23T07:40:47;6.60;98.20
4374;DHT22;2201;51.100;6.814;2024-02-23T07:43:14;6.70;98.20
4374;DHT22;2201;51.100;6.814;2024-02-23T07:45:42;6.80;98.20
4374;DHT22;2201;51.100;6.814;2024-02-23T07:48:09;6.90;98.20
4374;DHT22;2201;51.100;6.814;2024-02-23T07:50:37;7.00;98.20
4374;DHT22;2201;51.100;6.814;2024-02-23T07:53:04;7.10;98.20
4374;DHT22;2201;51.100;6.814;2024-02-23T07:55:31;7.10;98.20
4374;DHT22;2201;51.100;6.814;2024-02-23T07:57:58;7.20;98.20
4374;DHT22;2201;51.100;6.814;2024-02-23T08:00:26;7.30;98.20
4374;DHT22;2201;51.100;6.814;2024-02-23T08:02:53;7.50;98.20
4374;DHT22;2201;51.100;6.814;2024-02-23T08:05:22;7.50;98.20
4374;DHT22;2201;51.100;6.814;2024-02-23T08:07:50;7.70;98.20
4374;DHT22;2201;51.100;6.814;2024-02-23T08:10:17;7.90;98.20
4374;DHT22;2201;51.100;6.814;2024-02-23T08:12:44;8.10;98.20
4374;DHT22;2201;51.100;6.814;2024-02-23T08:15:10;8.30;98.20
4374;DHT22;2201;51.100;6.814;2024-02-23T08:17:37;8.50;98.20
4374;DHT22;2201;51.100;6.814;2024-02-23T08:20:05;8.60;98.20
4374;DHT22;2201;51.100;6.814;2024-02-23T08:22:33;8.60;98.20
4374;DHT22;2201;51.100;6.814;2024-02-23T08:25:01;8.50;98.20
4374;DHT22;2201;51.100;6.814;2024-02-23T08:27:28;8.50;98.20
4374;DHT22;2201;51.100;6.814;2024-02-23T08:29:54;8.50;98.20
4374;DHT22;2201;51.100;6.814;2024-02-23T08:32:21;8.50;98.20
4374;DHT22;2201;51.100;6.814;2024-02-23T08:34:48;8.40;98.20
4374;DHT22;2201;51.100;6.814;2024-02-23T08:37:15;8.40;98.20
4374;DHT22;2201;51.100;6.814;2024-02-23T08:39:42;8.60;98.20
4374;DHT22;2201;51.100;6.814;2024-02-23T08:42:11;8.90;98.20
4374;DHT22;2201;51.100;6.814;2024-02-23T08:44:38;9.10;98.20
4374;DHT22;2201;51.100;6.814;2024-02-23T08:47:06;9.20;98.20
4374;DHT22;2201;51.100;6.814;2024-02-23T08:49:33;9.40;98.20
4374;DHT22;2201;51.100;6.814;2024-02-23T08:52:00;9.50;98.20
4374;DHT22;2201;51.100;6.814;2024-02-23T08:54:28;9.50;98.20
4374;DHT22;2201;51.100;6.814;2024-02-23T08:56:55;9.50;98.20
4374;DHT22;2201;51.100;6.814;2024-02-23T08:59:25;9.40;98.20
4374;DHT22;2201;51.100;6.814;2024-02-23T09:01:52;9.20;98.20
4374;DHT22;2201;51.100;6.814;2024-02-23T09:04:19;9.10;98.20
4374;DHT22;2201;51.100;6.814;2024-02-23T09:06:45;9.00;98.20
4374;DHT22;2201;51.100;6.814;2024-02-23T09:09:15;8.90;98.20
4374;DHT22;2201;51.100;6.814;2024-02-23T09:11:42;8.80;98.20
4374;DHT22;2201;51.100;6.814;2024-02-23T09:14:10;8.80;98.20
4374;DHT22;2201;51.100;6.814;2024-02-23T09:16:40;8.80;98.20
4374;DHT22;2201;51.100;6.814;2024-02-23T09:19:07;8.80;98.20
4374;DHT22;2201;51.100;6.814;2024-02-23T09:21:44;8.80;98.20
4374;DHT22;2201;51.100;6.814;2024-02-23T09:24:11;8.90;98.20
4374;DHT22;2201;51.100;6.814;2024-02-23T09:26:38;8.90;98.20
4374;DHT22;2201;51.100;6.814;2024-02-23T09:29:06;9.00;98.20
4374;DHT22;2201;51.100;6.814;2024-02-23T09:31:34;9.10;98.20
4374;DHT22;2201;51.100;6.814;2024-02-23T09:34:13;9.20;98.20
4374;DHT22;2201;51.100;6.814;2024-02-23T09:36:43;9.30;98.20
4374;DHT22;2201;51.100;6.814;2024-02-23T09:39:16;9.40;98.20
4374;DHT22;2201;51.100;6.814;2024-02-23T09:41:44;9.40;98.20
4374;DHT22;2201;51.100;6.814;2024-02-23T09:44:12;9.40;98.20
4374;DHT22;2201;51.100;6.814;2024-02-23T09:46:41;9.40;98.20
4374;DHT22;2201;51.100;6.814;2024-02-23T09:49:12;9.40;98.20
4374;DHT22;2201;51.100;6.814;2024-02-23T09:51:40;9.40;98.20
4374;DHT22;2201;51.100;6.814;2024-02-23T09:54:07;9.40;98.20
4374;DHT22;2201;51.100;6.814;2024-02-23T09:56:34;9.40;98.20
4374;DHT22;2201;51.100;6.814;2024-02-23T09:59:03;9.40;98.20
4374;DHT22;2201;51.100;6.814;2024-02-23T10:01:31;9.50;98.20
4374;DHT22;2201;51.100;6.814;2024-02-23T10:04:01;9.50;98.20
4374;DHT22;2201;51.100;6.814;2024-02-23T10:06:31;9.50;98.20
4374;DHT22;2201;51.100;6.814;2024-02-23T10:08:58;9.50;98.20
4374;DHT22;2201;51.100;6.814;2024-02-23T10:11:29;9.50;98.20
4374;DHT22;2201;51.100;6.814;2024-02-23T10:13:59;9.60;98.20
4374;DHT22;2201;51.100;6.814;2024-02-23T10:16:26;9.60;98.20
4374;DHT22;2201;51.100;6.814;2024-02-23T10:18:53;9.70;98.20
4374;DHT22;2201;51.100;6.814;2024-02-23T10:21:20;9.90;98.20
4374;DHT22;2201;51.100;6.814;2024-02-23T10:23:49;10.00;98.20
4374;DHT22;2201;51.100;6.814;2024-02-23T10:26:17;10.10;98.20
4374;DHT22;2201;51.100;6.814;2024-02-23T10:29:09;10.20;98.20
4374;DHT22;2201;51.100;6.814;2024-02-23T10:31:38;10.30;98.20
4374;DHT22;2201;51.100;6.814;2024-02-23T10:34:08;10.30;98.20
4374;DHT22;2201;51.100;6.814;2024-02-23T10:36:47;10.30;98.20
4374;DHT22;2201;51.100;6.814;2024-02-23T10:39:18;10.40;98.20
4374;DHT22;2201;51.100;6.814;2024-02-23T10:41:49;10.40;98.20
4374;DHT22;2201;51.100;6.814;2024-02-23T10:44:18;10.30;98.20
4374;DHT22;2201;51.100;6.814;2024-02-23T10:46:46;10.30;98.20
4374;DHT22;2201;51.100;6.814;2024-02-23T10:49:15;10.20;98.20
4374;DHT22;2201;51.100;6.814;2024-02-23T10:52:00;10.20;98.20
4374;DHT22;2201;51.100;6.814;2024-02-23T10:54:31;10.00;98.20
4374;DHT22;2201;51.100;6.814;2024-02-23T10:57:09;10.00;98.20
4374;DHT22;2201;51.100;6.814;2024-02-23T10:59:55;10.00;98.20
4374;DHT22;2201;51.100;6.814;2024-02-23T11:05:38;9.90;98.20
4374;DHT22;2201;51.100;6.814;2024-02-23T11:08:07;9.90;98.20
4374;DHT22;2201;51.100;6.814;2024-02-23T11:10:43;9.90;98.20
4374;DHT22;2201;51.100;6.814;2024-02-23T11:13:09;9.80;98.20
4374;DHT22;2201;51.100;6.814;2024-02-23T11:15:42;9.80;98.20
4374;DHT22;2201;51.100;6.814;2024-02-23T11:18:21;9.70;98.20
4374;DHT22;2201;51.100;6.814;2024-02-23T11:20:54;9.60;98.20
4374;DHT22;2201;51.100;6.814;2024-02-23T11:23:21;9.60;98.20
4374;DHT22;2201;51.100;6.814;2024-02-23T11:26:04;9.50;98.20
4374;DHT22;2201;51.100;6.814;2024-02-23T11:28:32;9.50;98.20
4374;DHT22;2201;51.100;6.814;2024-02-23T11:30:59;9.50;98.20
4374;DHT22;2201;51.100;6.814;2024-02-23T11:33:28;9.60;98.20
4374;DHT22;2201;51.100;6.814;2024-02-23T11:36:05;9.60;98.20
4374;DHT22;2201;51.100;6.814;2024-02-23T11:38:32;9.70;98.20
4374;DHT22;2201;51.100;6.814;2024-02-23T11:41:02;9.80;98.20
4374;DHT22;2201;51.100;6.814;2024-02-23T11:43:29;9.80;98.20
4374;DHT22;2201;51.100;6.814;2024-02-23T11:45:56;9.90;98.20
4374;DHT22;2201;51.100;6.814;2024-02-23T11:48:25;9.90;98.20
4374;DHT22;2201;51.100;6.814;2024-02-23T11:50:52;10.00;98.20
4374;DHT22;2201;51.100;6.814;2024-02-23T11:53:20;10.00;98.20
4374;DHT22;2201;51.100;6.814;2024-02-23T11:55:48;10.10;98.20
4374;DHT22;2201;51.100;6.814;2024-02-23T11:58:17;10.10;98.20
4374;DHT22;2201;51.100;6.814;2024-02-23T12:00:44;10.20;98.20
4374;DHT22;2201;51.100;6.814;2024-02-23T12:03:11;10.10;98.20
4374;DHT22;2201;51.100;6.814;2024-02-23T12:05:38;10.10;98.20
4374;DHT22;2201;51.100;6.814;2024-02-23T12:08:06;10.10;98.20
4374;DHT22;2201;51.100;6.814;2024-02-23T12:10:33;10.10;98.20
4374;DHT22;2201;51.100;6.814;2024-02-23T12:13:00;10.10;98.20
4374;DHT22;2201;51.100;6.814;2024-02-23T12:15:28;10.10;98.20
4374;DHT22;2201;51.100;6.814;2024-02-23T12:17:58;10.10;98.20
4374;DHT22;2201;51.100;6.814;2024-02-23T12:20:25;10.10;98.20
4374;DHT22;2201;51.100;6.814;2024-02-23T12:22:54;10.00;98.20
4374;DHT22;2201;51.100;6.814;2024-02-23T12:25:22;10.00;98.20
4374;DHT22;2201;51.100;6.814;2024-02-23T12:27:54;9.90;98.20
4374;DHT22;2201;51.100;6.814;2024-02-23T12:30:23;9.90;98.20
4374;DHT22;2201;51.100;6.814;2024-02-23T12:32:51;9.90;98.20
4374;DHT22;2201;51.100;6.814;2024-02-23T12:35:18;9.90;98.20
4374;DHT22;2201;51.100;6.814;2024-02-23T12:37:45;9.90;98.20
4374;DHT22;2201;51.100;6.814;2024-02-23T12:40:12;10.00;98.20
4374;DHT22;2201;51.100;6.814;2024-02-23T12:42:39;10.10;98.20
4374;DHT22;2201;51.100;6.814;2024-02-23T12:45:06;10.30;98.20
4374;DHT22;2201;51.100;6.814;2024-02-23T12:47:36;10.40;98.20
4374;DHT22;2201;51.100;6.814;2024-02-23T12:50:07;10.50;98.20
4374;DHT22;2201;51.100;6.814;2024-02-23T12:52:44;10.60;98.20
4374;DHT22;2201;51.100;6.814;2024-02-23T12:55:14;10.70;98.20
4374;DHT22;2201;51.100;6.814;2024-02-23T12:57:41;10.70;98.20
4374;DHT22;2201;51.100;6.814;2024-02-23T13:00:09;10.70;98.20
4374;DHT22;2201;51.100;6.814;2024-02-23T13:02:36;10.80;98.20
4374;DHT22;2201;51.100;6.814;2024-02-23T13:05:05;10.80;98.20
4374;DHT22;2201;51.100;6.814;2024-02-23T13:07:32;10.80;98.20
4374;DHT22;2201;51.100;6.814;2024-02-23T13:09:59;10.80;98.20
4374;DHT22;2201;51.100;6.814;2024-02-23T13:12:32;10.80;98.00
4374;DHT22;2201;51.100;6.814;2024-02-23T13:15:02;10.70;97.80
4374;DHT22;2201;51.100;6.814;2024-02-23T13:17:32;10.70;98.20
4374;DHT22;2201;51.100;6.814;2024-02-23T13:19:59;10.70;98.20
4374;DHT22;2201;51.100;6.814;2024-02-23T13:22:28;10.80;98.10
4374;DHT22;2201;51.100;6.814;2024-02-23T13:24:55;10.80;97.90
4374;DHT22;2201;51.100;6.814;2024-02-23T13:27:22;10.80;98.20
4374;DHT22;2201;51.100;6.814;2024-02-23T13:29:49;10.80;98.20
4374;DHT22;2201;51.100;6.814;2024-02-23T13:32:16;10.80;98.20
4374;DHT22;2201;51.100;6.814;2024-02-23T13:34:43;10.80;98.00
4374;DHT22;2201;51.100;6.814;2024-02-23T13:37:10;10.80;98.20
4374;DHT22;2201;51.100;6.814;2024-02-23T13:39:43;10.70;97.50
4374;DHT22;2201;51.100;6.814;2024-02-23T13:42:10;10.70;98.20
4374;DHT22;2201;51.100;6.814;2024-02-23T13:44:40;10.80;97.70
4374;DHT22;2201;51.100;6.814;2024-02-23T13:47:09;10.80;97.90
4374;DHT22;2201;51.100;6.814;2024-02-23T13:49:38;10.90;97.50
4374;DHT22;2201;51.100;6.814;2024-02-23T13:52:07;10.80;97.20
4374;DHT22;2201;51.100;6.814;2024-02-23T13:54:34;10.90;97.10
4374;DHT22;2201;51.100;6.814;2024-02-23T13:57:38;10.90;96.40
4374;DHT22;2201;51.100;6.814;2024-02-23T14:00:00;10.80;96.90
4374;DHT22;2201;51.100;6.814;2024-02-23T14:02:27;10.80;97.20
4374;DHT22;2201;51.100;6.814;2024-02-23T14:05:02;10.80;98.20
4374;DHT22;2201;51.100;6.814;2024-02-23T14:07:37;10.80;97.30
4374;DHT22;2201;51.100;6.814;2024-02-23T14:10:05;10.80;97.30
4374;DHT22;2201;51.100;6.814;2024-02-23T14:12:34;10.80;98.20
4374;DHT22;2201;51.100;6.814;2024-02-23T14:15:04;10.70;98.20
4374;DHT22;2201;51.100;6.814;2024-02-23T14:17:31;10.70;98.20
4374;DHT22;2201;51.100;6.814;2024-02-23T14:20:00;10.70;98.20
4374;DHT22;2201;51.100;6.814;2024-02-23T14:22:32;10.60;97.90
4374;DHT22;2201;51.100;6.814;2024-02-23T14:24:59;10.60;98.20
4374;DHT22;2201;51.100;6.814;2024-02-23T14:27:26;10.60;98.20
4374;DHT22;2201;51.100;6.814;2024-02-23T14:29:55;10.60;98.20
4374;DHT22;2201;51.100;6.814;2024-02-23T14:32:22;10.50;98.20
4374;DHT22;2201;51.100;6.814;2024-02-23T14:34:50;10.50;98.20
4374;DHT22;2201;51.100;6.814;2024-02-23T14:37:17;10.50;98.20
4374;DHT22;2201;51.100;6.814;2024-02-23T14:39:44;10.50;98.20
4374;DHT22;2201;51.100;6.814;2024-02-23T14:42:13;10.60;98.20
4374;DHT22;2201;51.100;6.814;2024-02-23T14:44:40;10.50;98.20
4374;DHT22;2201;51.100;6.814;2024-02-23T14:47:08;10.50;98.20
4374;DHT22;2201;51.100;6.814;2024-02-23T14:49:35;10.50;98.20
4374;DHT22;2201;51.100;6.814;2024-02-23T14:52:02;10.50;98.20
4374;DHT22;2201;51.100;6.814;2024-02-23T14:54:30;10.50;98.20
4374;DHT22;2201;51.100;6.814;2024-02-23T14:56:58;10.40;98.20
4374;DHT22;2201;51.100;6.814;2024-02-23T14:59:25;10.30;98.20
4374;DHT22;2201;51.100;6.814;2024-02-23T15:01:52;10.20;98.20
4374;DHT22;2201;51.100;6.814;2024-02-23T15:04:20;10.20;98.20
4374;DHT22;2201;51.100;6.814;2024-02-23T15:06:48;10.10;98.20
4374;DHT22;2201;51.100;6.814;2024-02-23T15:09:14;10.00;98.20
4374;DHT22;2201;51.100;6.814;2024-02-23T15:11:44;9.90;98.20
4374;DHT22;2201;51.100;6.814;2024-02-23T15:14:11;9.80;98.20
4374;DHT22;2201;51.100;6.814;2024-02-23T15:16:40;9.80;98.20
4374;DHT22;2201;51.100;6.814;2024-02-23T15:19:08;9.70;98.20
4374;DHT22;2201;51.100;6.814;2024-02-23T15:21:40;9.60;98.20
4374;DHT22;2201;51.100;6.814;2024-02-23T15:24:08;9.60;98.20
4374;DHT22;2201;51.100;6.814;2024-02-23T15:26:35;9.50;98.20
4374;DHT22;2201;51.100;6.814;2024-02-23T15:29:05;9.50;98.20
4374;DHT22;2201;51.100;6.814;2024-02-23T15:31:41;9.40;98.20
4374;DHT22;2201;51.100;6.814;2024-02-23T15:34:28;9.40;98.20
4374;DHT22;2201;51.100;6.814;2024-02-23T15:37:00;9.30;98.20
4374;DHT22;2201;51.100;6.814;2024-02-23T15:39:29;9.20;98.20
4374;DHT22;2201;51.100;6.814;2024-02-23T15:42:01;9.20;98.20
4374;DHT22;2201;51.100;6.814;2024-02-23T15:44:28;9.20;98.20
4374;DHT22;2201;51.100;6.814;2024-02-23T15:46:57;9.20;98.20
4374;DHT22;2201;51.100;6.814;2024-02-23T15:49:24;9.30;98.20
4374;DHT22;2201;51.100;6.814;2024-02-23T15:51:54;9.20;98.20
4374;DHT22;2201;51.100;6.814;2024-02-23T15:54:22;9.20;98.20
4374;DHT22;2201;51.100;6.814;2024-02-23T15:56:49;9.10;98.20
4374;DHT22;2201;51.100;6.814;2024-02-23T15:59:16;9.10;98.20
4374;DHT22;2201;51.100;6.814;2024-02-23T16:01:45;9.00;98.20
4374;DHT22;2201;51.100;6.814;2024-02-23T16:04:13;9.00;98.20
4374;DHT22;2201;51.100;6.814;2024-02-23T16:06:40;9.00;98.20
4374;DHT22;2201;51.100;6.814;2024-02-23T16:09:07;9.10;98.20
4374;DHT22;2201;51.100;6.814;2024-02-23T16:11:36;9.10;98.20
4374;DHT22;2201;51.100;6.814;2024-02-23T16:14:15;9.10;98.20
4374;DHT22;2201;51.100;6.814;2024-02-23T16:16:43;9.10;98.20
4374;DHT22;2201;51.100;6.814;2024-02-23T16:19:10;9.00;98.20
4374;DHT22;2201;51.100;6.814;2024-02-23T16:21:37;9.00;98.20
4374;DHT22;2201;51.100;6.814;2024-02-23T16:24:05;9.00;98.20
4374;DHT22;2201;51.100;6.814;2024-02-23T16:26:32;8.90;98.20
4374;DHT22;2201;51.100;6.814;2024-02-23T16:29:03;8.90;98.20
4374;DHT22;2201;51.100;6.814;2024-02-23T16:31:30;8.90;98.20
4374;DHT22;2201;51.100;6.814;2024-02-23T16:34:00;9.00;98.20
4374;DHT22;2201;51.100;6.814;2024-02-23T16:36:27;8.90;98.20
4374;DHT22;2201;51.100;6.814;2024-02-23T16:38:54;9.00;98.20
4374;DHT22;2201;51.100;6.814;2024-02-23T16:41:22;8.90;98.20
4374;DHT22;2201;51.100;6.814;2024-02-23T16:43:49;8.90;98.20
4374;DHT22;2201;51.100;6.814;2024-02-23T16:46:53;8.90;98.20
4374;DHT22;2201;51.100;6.814;2024-02-23T16:49:28;9.00;98.20
4374;DHT22;2201;51.100;6.814;2024-02-23T16:52:15;8.90;98.20
4374;DHT22;2201;51.100;6.814;2024-02-23T16:54:42;8.90;98.20
4374;DHT22;2201;51.100;6.814;2024-02-23T16:57:09;8.90;98.20
4374;DHT22;2201;51.100;6.814;2024-02-23T16:59:36;8.90;98.20
4374;DHT22;2201;51.100;6.814;2024-02-23T17:02:07;8.90;98.20
4374;DHT22;2201;51.100;6.814;2024-02-23T17:04:57;8.90;98.20
4374;DHT22;2201;51.100;6.814;2024-02-23T17:07:26;8.80;98.20
4374;DHT22;2201;51.100;6.814;2024-02-23T17:09:53;8.80;98.20
4374;DHT22;2201;51.100;6.814;2024-02-23T17:12:20;8.80;98.20
4374;DHT22;2201;51.100;6.814;2024-02-23T17:14:47;8.80;98.20
4374;DHT22;2201;51.100;6.814;2024-02-23T17:17:16;8.80;98.20
4374;DHT22;2201;51.100;6.814;2024-02-23T17:19:44;8.80;98.20
4374;DHT22;2201;51.100;6.814;2024-02-23T17:22:11;8.80;98.20
4374;DHT22;2201;51.100;6.814;2024-02-23T17:24:38;8.80;98.20
4374;DHT22;2201;51.100;6.814;2024-02-23T17:27:05;8.70;98.20
4374;DHT22;2201;51.100;6.814;2024-02-23T17:29:32;8.60;98.20
4374;DHT22;2201;51.100;6.814;2024-02-23T17:32:00;8.50;98.20
4374;DHT22;2201;51.100;6.814;2024-02-23T17:34:29;8.50;98.20
4374;DHT22;2201;51.100;6.814;2024-02-23T17:36:56;8.40;98.20
4374;DHT22;2201;51.100;6.814;2024-02-23T17:39:23;8.40;98.20
4374;DHT22;2201;51.100;6.814;2024-02-23T17:41:52;8.40;98.20
4374;DHT22;2201;51.100;6.814;2024-02-23T17:44:20;8.30;98.20
4374;DHT22;2201;51.100;6.814;2024-02-23T17:46:47;8.30;98.20
4374;DHT22;2201;51.100;6.814;2024-02-23T17:49:14;8.30;98.20
4374;DHT22;2201;51.100;6.814;2024-02-23T17:51:43;8.30;98.20
4374;DHT22;2201;51.100;6.814;2024-02-23T17:54:10;8.20;98.20
4374;DHT22;2201;51.100;6.814;2024-02-23T17:56:37;8.20;98.20
4374;DHT22;2201;51.100;6.814;2024-02-23T17:59:07;8.20;98.20
4374;DHT22;2201;51.100;6.814;2024-02-23T18:01:34;8.20;98.20
4374;DHT22;2201;51.100;6.814;2024-02-23T18:04:03;8.20;98.20
4374;DHT22;2201;51.100;6.814;2024-02-23T18:06:30;8.20;98.20
4374;DHT22;2201;51.100;6.814;2024-02-23T18:08:59;8.20;98.20
4374;DHT22;2201;51.100;6.814;2024-02-23T18:11:26;8.20;98.20
4374;DHT22;2201;51.100;6.814;2024-02-23T18:13:53;8.20;98.20
4374;DHT22;2201;51.100;6.814;2024-02-23T18:16:21;8.20;98.20
4374;DHT22;2201;51.100;6.814;2024-02-23T18:18:49;8.20;98.20
4374;DHT22;2201;51.100;6.814;2024-02-23T18:21:17;8.20;98.20
4374;DHT22;2201;51.100;6.814;2024-02-23T18:23:44;8.10;98.20
4374;DHT22;2201;51.100;6.814;2024-02-23T18:26:14;8.10;98.20
4374;DHT22;2201;51.100;6.814;2024-02-23T18:28:41;8.10;98.20
4374;DHT22;2201;51.100;6.814;2024-02-23T18:31:08;8.10;98.20
4374;DHT22;2201;51.100;6.814;2024-02-23T18:33:35;8.00;98.20
4374;DHT22;2201;51.100;6.814;2024-02-23T18:36:03;8.00;98.20
4374;DHT22;2201;51.100;6.814;2024-02-23T18:38:30;8.00;98.20
4374;DHT22;2201;51.100;6.814;2024-02-23T18:40:57;8.00;98.20
4374;DHT22;2201;51.100;6.814;2024-02-23T18:43:29;8.00;98.20
4374;DHT22;2201;51.100;6.814;2024-02-23T18:45:58;8.00;98.20
4374;DHT22;2201;51.100;6.814;2024-02-23T18:48:25;8.00;98.20
4374;DHT22;2201;51.100;6.814;2024-02-23T18:50:52;7.90;98.20
4374;DHT22;2201;51.100;6.814;2024-02-23T18:53:19;7.90;98.20
4374;DHT22;2201;51.100;6.814;2024-02-23T18:55:47;7.90;98.20
4374;DHT22;2201;51.100;6.814;2024-02-23T18:58:14;8.00;98.20
4374;DHT22;2201;51.100;6.814;2024-02-23T19:00:46;8.00;98.20
4374;DHT22;2201;51.100;6.814;2024-02-23T19:03:13;8.00;98.20
4374;DHT22;2201;51.100;6.814;2024-02-23T19:05:40;8.00;98.20
4374;DHT22;2201;51.100;6.814;2024-02-23T19:08:07;8.00;98.20
4374;DHT22;2201;51.100;6.814;2024-02-23T19:10:34;8.00;98.20
4374;DHT22;2201;51.100;6.814;2024-02-23T19:13:02;8.00;98.20
4374;DHT22;2201;51.100;6.814;2024-02-23T19:15:29;8.00;98.20
4374;DHT22;2201;51.100;6.814;2024-02-23T19:17:57;7.90;98.20
4374;DHT22;2201;51.100;6.814;2024-02-23T19:20:24;7.90;98.20
4374;DHT22;2201;51.100;6.814;2024-02-23T19:22:51;7.90;98.20
4374;DHT22;2201;51.100;6.814;2024-02-23T19:25:21;8.00;98.20
4374;DHT22;2201;51.100;6.814;2024-02-23T19:27:47;8.00;98.20
4374;DHT22;2201;51.100;6.814;2024-02-23T19:30:15;7.90;98.20
4374;DHT22;2201;51.100;6.814;2024-02-23T19:32:42;7.90;98.20
4374;DHT22;2201;51.100;6.814;2024-02-23T19:35:10;7.90;98.20
4374;DHT22;2201;51.100;6.814;2024-02-23T19:37:37;7.90;98.20
4374;DHT22;2201;51.100;6.814;2024-02-23T19:40:05;7.90;98.20
4374;DHT22;2201;51.100;6.814;2024-02-23T19:42:33;7.80;98.20
4374;DHT22;2201;51.100;6.814;2024-02-23T19:45:00;7.80;98.20
4374;DHT22;2201;51.100;6.814;2024-02-23T19:47:28;7.70;98.20
4374;DHT22;2201;51.100;6.814;2024-02-23T19:49:55;7.70;98.20
4374;DHT22;2201;51.100;6.814;2024-02-23T19:52:23;7.60;98.20
4374;DHT22;2201;51.100;6.814;2024-02-23T19:54:51;7.60;98.20
4374;DHT22;2201;51.100;6.814;2024-02-23T19:57:18;7.50;98.20
4374;DHT22;2201;51.100;6.814;2024-02-23T19:59:45;7.40;98.20
4374;DHT22;2201;51.100;6.814;2024-02-23T20:02:12;7.40;98.20
4374;DHT22;2201;51.100;6.814;2024-02-23T20:04:39;7.30;98.20
4374;DHT22;2201;51.100;6.814;2024-02-23T20:07:09;7.30;98.20
4374;DHT22;2201;51.100;6.814;2024-02-23T20:09:40;7.30;98.20
4374;DHT22;2201;51.100;6.814;2024-02-23T20:12:10;7.20;98.20
4374;DHT22;2201;51.100;6.814;2024-02-23T20:14:38;7.20;98.20
4374;DHT22;2201;51.100;6.814;2024-02-23T20:17:06;7.20;98.20
4374;DHT22;2201;51.100;6.814;2024-02-23T20:19:34;7.10;98.20
4374;DHT22;2201;51.100;6.814;2024-02-23T20:22:00;7.10;98.20
4374;DHT22;2201;51.100;6.814;2024-02-23T20:24:27;7.10;98.20
4374;DHT22;2201;51.100;6.814;2024-02-23T20:26:56;7.10;98.20
4374;DHT22;2201;51.100;6.814;2024-02-23T20:29:28;7.00;98.20
4374;DHT22;2201;51.100;6.814;2024-02-23T20:31:55;7.00;98.20